Time;durP1;ratioP1;P1;durP2;ratioP2;P2;SDS_P1;SDS_P2;PMS_P1;PMS_P2;Temp;Humidity;BMP_temperature;BMP_pressure;BME280_temperature;BME280_humidity;BME280_pressure;Samples;Min_cycle;Max_cycle;Signal;HPM_P1;HPM_P2
2022/02/15 02:06:08;;;;;;;47.95;25.85;;;;;;;4.43;100.00;101689.28;5663926;23;20096;-72
2022/02/15 05:52:20;;;;;;;51.78;26.25;;;;;;;2.68;100.00;101737.25;5400655;23;20059;-71
2022/02/15 05:55:07;;;;;;;47.30;27.42;;;;;;;2.67;100.00;101726.84;4939330;29;20142;-72
2022/02/15 05:57:53;;;;;;;51.70;28.85;;;;;;;2.87;100.00;101716.28;4940590;29;20464;-70
2022/02/15 06:00:39;;;;;;;81.13;44.35;;;;;;;2.90;100.00;101716.34;4938872;29;20111;-71
2022/02/15 06:06:29;;;;;;;78.63;44.33;;;;;;;3.06;100.00;101713.34;4939610;29;20035;-70
2022/02/15 06:09:15;;;;;;;64.35;35.58;;;;;;;3.19;100.00;101712.91;4926859;29;20111;-71
2022/02/15 06:41:38;;;;;;;48.65;27.58;;;;;;;3.12;100.00;101744.63;5028922;23;20064;-71
2022/02/15 06:44:24;;;;;;;49.67;27.90;;;;;;;3.16;100.00;101751.63;4938554;29;20042;-70
2022/02/15 06:47:09;;;;;;;49.78;28.92;;;;;;;3.45;100.00;101742.06;4937782;29;20455;-71
2022/02/15 06:49:56;;;;;;;53.85;30.35;;;;;;;3.44;100.00;101740.31;4938100;29;20046;-71
2022/02/15 06:52:41;;;;;;;48.10;29.15;;;;;;;3.52;100.00;101747.47;4938708;29;20027;-71
2022/02/15 06:55:27;;;;;;;56.92;30.98;;;;;;;3.50;100.00;101753.47;4938138;29;20115;-70
2022/02/15 06:58:13;;;;;;;60.13;31.75;;;;;;;3.38;100.00;101745.34;4924538;29;20028;-71
2022/02/15 07:41:15;;;;;;;54.65;32.17;;;;;;;6.07;100.00;101754.97;4917698;29;20052;-72
2022/02/15 07:44:01;;;;;;;54.00;31.33;;;;;;;6.35;100.00;101744.16;4905253;29;20039;-72
2022/02/15 07:46:47;;;;;;;56.75;31.85;;;;;;;6.26;100.00;101743.16;4918305;29;20110;-71
2022/02/15 07:49:33;;;;;;;59.10;32.75;;;;;;;6.35;100.00;101744.16;4917934;29;20028;-72
2022/02/15 07:52:19;;;;;;;67.88;34.97;;;;;;;6.56;100.00;101747.13;4906591;29;20118;-73
2022/02/15 07:55:05;;;;;;;69.22;36.25;;;;;;;6.68;100.00;101741.22;4917760;29;20031;-73
2022/02/15 07:57:51;;;;;;;66.65;35.40;;;;;;;6.69;100.00;101736.03;4918115;29;20028;-72
2022/02/15 08:00:37;;;;;;;61.92;36.80;;;;;;;6.69;100.00;101741.25;4918232;29;20032;-72
2022/02/15 08:03:23;;;;;;;67.78;36.80;;;;;;;7.14;100.00;101740.97;4918732;29;20032;-72
2022/02/15 08:06:08;;;;;;;70.10;35.17;;;;;;;6.98;100.00;101744.22;4918762;29;20032;-71
2022/02/15 08:08:54;;;;;;;56.17;32.88;;;;;;;7.14;100.00;101752.28;4917801;29;20024;-71
2022/02/15 08:11:43;;;;;;;55.08;32.50;;;;;;;6.34;100.00;101751.97;4917051;29;20031;-72
2022/02/15 08:14:30;;;;;;;56.45;31.23;;;;;;;6.62;100.00;101759.31;4920190;29;20051;-72
2022/02/15 08:17:16;;;;;;;58.90;30.95;;;;;;;7.23;100.00;101748.94;4918547;29;20023;-72
2022/02/15 08:20:02;;;;;;;59.63;33.85;;;;;;;7.27;100.00;101745.50;4918271;29;20032;-72
2022/02/15 08:22:48;;;;;;;55.63;33.58;;;;;;;7.82;100.00;101740.00;4919183;29;20028;-72
2022/02/15 13:10:58;;;;;;;21.45;14.07;;;;;;;14.70;54.59;101514.88;5205864;23;20043;-73
2022/02/15 13:13:46;;;;;;;19.38;13.75;;;;;;;15.36;53.16;101509.88;4939740;29;20372;-74
2022/02/15 13:16:48;;;;;;;19.88;14.60;;;;;;;15.45;51.74;101516.69;4940021;29;20062;-72
2022/02/15 13:19:38;;;;;;;22.25;15.02;;;;;;;14.66;53.82;101510.59;4940401;29;20405;-73
2022/02/15 13:22:24;;;;;;;22.35;14.48;;;;;;;14.64;54.11;101515.00;4940335;29;20024;-73
2022/02/15 13:25:10;;;;;;;21.48;14.02;;;;;;;14.37;54.42;101510.31;4939912;29;20069;-73
2022/02/15 13:27:59;;;;;;;22.25;14.70;;;;;;;14.63;54.58;101510.63;4940327;29;20035;-73
2022/02/15 13:30:46;;;;;;;21.98;14.18;;;;;;;15.06;53.70;101517.63;4939095;29;20016;-73
2022/02/15 13:33:41;;;;;;;19.83;13.88;;;;;;;15.09;53.04;101509.59;4940922;29;20452;-73
2022/02/15 13:36:34;;;;;;;20.45;13.93;;;;;;;14.69;53.75;101513.16;4925322;29;20058;-72
2022/02/15 13:39:20;;;;;;;19.58;13.55;;;;;;;14.80;54.14;101513.78;4939995;29;20051;-73
2022/02/15 13:42:07;;;;;;;16.50;12.55;;;;;;;15.12;52.58;101510.41;4926976;29;20035;-73
2022/02/15 13:44:54;;;;;;;18.92;12.05;;;;;;;15.08;52.60;101502.59;4939573;29;20087;-72
2022/02/15 13:47:41;;;;;;;16.83;11.85;;;;;;;15.05;51.96;101503.53;4939751;29;20412;-73
2022/02/15 16:57:23;;;;;;;123.57;63.53;;;;;;;11.78;79.30;101527.34;5255796;23;19938;-73
2022/02/15 17:00:09;;;;;;;131.30;66.40;;;;;;;11.48;82.97;101535.44;4936046;29;20177;-73
2022/02/15 17:02:55;;;;;;;147.82;68.65;;;;;;;11.44;85.35;101526.75;4936447;29;20054;-72
2022/02/15 17:05:41;;;;;;;119.63;65.35;;;;;;;11.58;82.62;101524.84;4936216;29;20028;-72
2022/02/15 17:08:26;;;;;;;129.65;71.75;;;;;;;11.42;84.35;101520.66;4925443;29;20035;-73
2022/02/15 17:11:12;;;;;;;225.70;113.82;;;;;;;11.43;84.80;101518.88;4935410;29;20028;-71
2022/02/15 17:13:58;;;;;;;247.45;125.32;;;;;;;11.36;85.59;101523.31;4936506;29;20042;-72
2022/02/15 17:16:44;;;;;;;245.80;120.38;;;;;;;11.08;89.49;101513.91;4936783;29;20032;-71
2022/02/15 17:19:29;;;;;;;204.15;101.18;;;;;;;11.19;89.74;101519.94;4936514;29;20066;-72
2022/02/15 17:22:16;;;;;;;232.60;114.53;;;;;;;11.10;90.38;101513.91;4935857;29;20034;-73
2022/02/15 17:25:03;;;;;;;193.25;105.65;;;;;;;11.24;88.76;101514.66;4936798;29;20106;-72
2022/02/15 17:27:50;;;;;;;287.45;150.05;;;;;;;11.28;88.53;101519.88;4936548;29;20032;-73
2022/02/15 17:30:36;;;;;;;274.33;145.90;;;;;;;10.76;93.87;101510.59;4935871;29;20027;-71
2022/02/15 17:33:22;;;;;;;263.67;139.63;;;;;;;11.09;91.28;101513.00;4936571;29;20028;-72
2022/02/15 17:36:08;;;;;;;258.90;138.20;;;;;;;11.04;92.24;101520.06;4936162;29;20027;-72
2022/02/15 21:46:54;;;;;;;75.97;42.55;;;;;;;8.06;100.00;101516.69;5707394;23;19927;-72
2022/02/15 21:49:40;;;;;;;77.43;42.40;;;;;;;7.99;100.00;101511.41;4926798;29;20059;-72
2022/02/15 21:52:26;;;;;;;63.15;36.58;;;;;;;7.82;100.00;101510.44;4926556;29;20148;-71
2022/02/15 21:55:12;;;;;;;62.35;36.90;;;;;;;7.78;100.00;101508.69;4926146;29;20031;-72
2022/02/15 21:57:58;;;;;;;57.25;33.90;;;;;;;7.79;100.00;101507.81;4920645;29;20126;-71
2022/02/15 22:00:44;;;;;;;53.25;32.47;;;;;;;7.83;100.00;101512.19;4920768;29;20477;-71
2022/02/15 22:03:29;;;;;;;56.90;33.35;;;;;;;7.98;100.00;101507.06;4920458;29;20480;-71
2022/02/15 22:06:15;;;;;;;60.42;33.47;;;;;;;7.88;100.00;101511.34;4920775;29;20024;-72
2022/02/15 22:09:01;;;;;;;59.97;33.05;;;;;;;7.82;100.00;101515.66;4922148;29;20369;-73
2022/02/15 22:56:52;;;;;;;41.72;24.50;;;;;;;7.00;100.00;101502.84;5432885;23;20047;-71
2022/02/15 22:59:38;;;;;;;39.20;23.33;;;;;;;7.33;100.00;101506.63;4937467;29;20047;-71
2022/02/15 23:02:25;;;;;;;48.45;27.55;;;;;;;7.31;100.00;101510.09;4937974;29;20114;-71
2022/02/15 23:20:36;;;;;;;40.38;23.10;;;;;;;7.10;100.00;101495.13;4918097;29;20024;-72
2022/02/15 23:23:21;;;;;;;45.03;25.33;;;;;;;7.08;100.00;101496.84;4918528;29;20023;-71
2022/02/15 23:26:07;;;;;;;44.97;26.45;;;;;;;6.93;100.00;101498.44;4918746;29;20040;-72
2022/02/15 23:28:53;;;;;;;45.92;26.52;;;;;;;6.90;100.00;101495.78;4918900;29;20401;-72
2022/02/15 23:31:39;;;;;;;50.10;27.98;;;;;;;7.03;100.00;101495.06;4918411;29;20059;-71
2022/02/15 23:34:24;;;;;;;53.80;29.52;;;;;;;6.84;100.00;101488.81;4919953;29;20035;-72
2022/02/15 23:37:10;;;;;;;46.92;27.45;;;;;;;6.90;100.00;101496.69;4919089;29;20461;-71
2022/02/15 23:39:56;;;;;;;51.97;29.00;;;;;;;6.83;100.00;101489.66;4918081;29;20051;-73
2022/02/15 23:42:43;;;;;;;62.78;33.72;;;;;;;6.48;100.00;101488.44;4919843;29;20111;-72
2022/02/15 23:45:28;;;;;;;58.05;32.40;;;;;;;6.52;100.00;101487.63;4918611;29;20452;-73
2022/02/15 23:48:15;;;;;;;58.50;31.85;;;;;;;6.61;100.00;101494.63;4918237;29;20122;-72
2022/02/15 23:51:01;;;;;;;56.03;30.77;;;;;;;6.64;100.00;101492.94;4917899;29;20020;-72
2022/02/15 23:53:47;;;;;;;60.08;33.58;;;;;;;6.58;100.00;101484.16;4906264;29;20036;-72
2022/02/15 23:56:32;;;;;;;57.97;30.70;;;;;;;6.36;100.00;101487.41;4917868;29;20151;-72
2022/02/15 23:59:18;;;;;;;58.60;33.50;;;;;;;6.79;100.00;101489.63;4917832;29;20119;-72
